createdAt,value
2023-02-19T00:01:47.281Z,7.77
2023-02-19T00:04:19.652Z,7.79
2023-02-19T00:06:48.256Z,7.80
2023-02-19T00:09:17.429Z,7.81
2023-02-19T00:11:46.623Z,7.82
2023-02-19T00:14:15.761Z,7.77
2023-02-19T00:16:44.003Z,7.73
2023-02-19T00:19:13.173Z,7.69
2023-02-19T00:21:41.169Z,7.63
2023-02-19T00:24:11.492Z,7.60
2023-02-19T00:26:40.963Z,7.58
2023-02-19T00:29:09.816Z,7.59
2023-02-19T00:31:37.918Z,7.56
2023-02-19T00:34:06.510Z,7.56
2023-02-19T00:36:36.775Z,7.54
2023-02-19T00:39:05.144Z,7.57
2023-02-19T00:41:33.232Z,7.60
2023-02-19T00:44:02.519Z,7.60
2023-02-19T00:46:31.944Z,7.60
2023-02-19T00:49:00.308Z,7.62
2023-02-19T00:51:29.704Z,7.65
2023-02-19T00:53:58.390Z,7.65
2023-02-19T00:56:26.872Z,7.68
2023-02-19T00:58:54.805Z,7.70
2023-02-19T01:01:22.849Z,7.73
2023-02-19T01:03:52.365Z,7.75
2023-02-19T01:06:20.693Z,7.78
2023-02-19T01:08:49.175Z,7.80
2023-02-19T01:11:18.074Z,7.80
2023-02-19T01:13:46.040Z,7.83
2023-02-19T01:16:15.794Z,7.88
2023-02-19T01:18:44.431Z,7.93
2023-02-19T01:21:13.830Z,7.99
2023-02-19T01:23:42.431Z,8.04
2023-02-19T01:26:12.958Z,8.10
2023-02-19T01:28:40.894Z,8.15
2023-02-19T01:31:12.309Z,8.18
2023-02-19T01:33:40.642Z,8.21
2023-02-19T01:36:08.821Z,8.21
2023-02-19T01:38:36.789Z,8.23
2023-02-19T01:41:06.645Z,8.25
2023-02-19T01:43:53.614Z,8.26
2023-02-19T01:46:21.637Z,8.26
2023-02-19T01:48:49.768Z,8.25
2023-02-19T01:51:19.990Z,8.24
2023-02-19T01:53:49.692Z,8.21
2023-02-19T01:56:18.998Z,8.18
2023-02-19T01:58:47.172Z,8.14
2023-02-19T02:01:15.474Z,8.09
2023-02-19T02:03:45.358Z,8.06
2023-02-19T02:06:39.652Z,8.02
2023-02-19T02:09:26.268Z,7.97
2023-02-19T02:11:54.534Z,7.95
2023-02-19T02:14:25.887Z,7.93
2023-02-19T02:17:10.148Z,7.93
2023-02-19T02:19:57.255Z,7.93
2023-02-19T02:22:44.886Z,7.93
2023-02-19T02:25:28.833Z,7.93
2023-02-19T02:28:15.844Z,7.94
2023-02-19T02:30:45.552Z,7.94
2023-02-19T02:33:31.748Z,7.93
2023-02-19T02:36:07.119Z,7.95
2023-02-19T02:38:37.826Z,7.98
2023-02-19T02:41:06.754Z,8.00
2023-02-19T02:43:35.199Z,8.03
2023-02-19T02:46:04.633Z,8.06
2023-02-19T02:48:37.182Z,8.09
2023-02-19T02:51:24.111Z,8.15
2023-02-19T02:54:20.634Z,8.20
2023-02-19T02:56:50.395Z,8.24
2023-02-19T02:59:20.456Z,8.26
2023-02-19T03:02:14.548Z,8.29
2023-02-19T03:05:04.632Z,8.30
2023-02-19T03:07:39.151Z,8.29
2023-02-19T03:10:10.611Z,8.29
2023-02-19T03:12:59.379Z,8.31
2023-02-19T03:15:48.633Z,8.27
2023-02-19T03:18:37.104Z,8.21
2023-02-19T03:21:07.376Z,8.13
2023-02-19T03:23:54.520Z,8.12
2023-02-19T03:26:22.799Z,8.09
2023-02-19T03:29:12.028Z,8.06
2023-02-19T03:31:43.270Z,8.05
2023-02-19T03:34:14.861Z,8.05
2023-02-19T03:36:45.768Z,8.03
2023-02-19T03:39:15.932Z,8.05
2023-02-19T03:41:47.074Z,8.05
2023-02-19T03:44:18.229Z,8.05
2023-02-19T03:47:10.152Z,8.06
2023-02-19T03:49:43.848Z,8.04
2023-02-19T03:52:17.000Z,8.03
2023-02-19T03:54:51.156Z,8.02
2023-02-19T03:57:22.206Z,8.02
2023-02-19T03:59:59.489Z,8.03
2023-02-19T04:02:41.762Z,8.04
2023-02-19T04:05:09.961Z,8.03
2023-02-19T04:07:41.640Z,8.04
2023-02-19T04:10:10.306Z,8.06
2023-02-19T04:12:43.810Z,8.06
2023-02-19T04:15:14.757Z,8.05
2023-02-19T04:17:46.118Z,8.04
2023-02-19T04:20:14.478Z,8.01
2023-02-19T04:22:42.653Z,8.00
2023-02-19T04:25:11.036Z,7.95
2023-02-19T04:27:39.115Z,7.90
2023-02-19T04:30:08.851Z,7.84
2023-02-19T04:32:36.875Z,7.78
2023-02-19T04:35:05.066Z,7.74
2023-02-19T04:37:33.016Z,7.75
2023-02-19T04:40:00.998Z,7.73
2023-02-19T04:42:28.960Z,7.68
2023-02-19T04:44:56.824Z,7.65
2023-02-19T04:47:24.774Z,7.62
2023-02-19T04:49:52.971Z,7.60
2023-02-19T04:52:20.838Z,7.55
2023-02-19T04:54:49.003Z,7.54
2023-02-19T04:57:16.877Z,7.56
2023-02-19T04:59:46.141Z,7.55
2023-02-19T05:02:14.064Z,7.57
2023-02-19T05:04:42.061Z,7.59
2023-02-19T05:07:10.182Z,7.63
2023-02-19T05:09:38.162Z,7.66
2023-02-19T05:12:06.150Z,7.68
2023-02-19T05:14:34.097Z,7.71
2023-02-19T05:17:02.172Z,7.74
2023-02-19T05:19:30.133Z,7.78
2023-02-19T05:21:58.108Z,7.80
2023-02-19T05:24:27.713Z,7.81
2023-02-19T05:26:55.890Z,7.83
2023-02-19T05:29:23.711Z,7.86
2023-02-19T05:31:51.867Z,7.86
2023-02-19T05:34:21.330Z,7.86
2023-02-19T05:36:49.302Z,7.87
2023-02-19T05:39:17.167Z,7.91
2023-02-19T05:41:45.148Z,7.94
2023-02-19T05:44:12.984Z,7.95
2023-02-19T05:46:40.994Z,7.94
2023-02-19T05:49:08.944Z,7.94
2023-02-19T05:51:36.868Z,7.94
2023-02-19T05:54:04.880Z,7.95
2023-02-19T05:56:42.585Z,7.96
2023-02-19T05:59:17.925Z,7.98
2023-02-19T06:01:46.094Z,7.99
2023-02-19T06:04:14.888Z,7.99
2023-02-19T06:06:43.266Z,7.99
2023-02-19T06:09:11.536Z,8.00
2023-02-19T06:11:40.046Z,7.99
2023-02-19T06:14:07.990Z,7.97
2023-02-19T06:16:35.958Z,7.98
2023-02-19T06:19:04.652Z,8.03
2023-02-19T06:21:32.627Z,8.06
2023-02-19T06:24:04.577Z,8.09
2023-02-19T06:26:32.582Z,8.10
2023-02-19T06:29:00.522Z,8.11
2023-02-19T06:31:28.676Z,8.12
2023-02-19T06:33:56.784Z,8.12
2023-02-19T06:36:25.147Z,8.15
2023-02-19T06:38:53.247Z,8.21
2023-02-19T06:41:21.360Z,8.29
2023-02-19T06:43:49.363Z,8.37
2023-02-19T06:46:17.343Z,8.44
2023-02-19T06:48:45.578Z,8.55
2023-02-19T06:51:15.424Z,8.66
2023-02-19T06:53:43.390Z,8.77
2023-02-19T06:56:26.224Z,8.88
2023-02-19T06:58:55.308Z,8.94
2023-02-19T07:01:23.685Z,8.98
2023-02-19T07:03:52.839Z,9.00
2023-02-19T07:06:21.954Z,9.05
2023-02-19T07:08:50.470Z,9.09
2023-02-19T07:11:19.028Z,9.13
2023-02-19T07:13:47.073Z,9.16
2023-02-19T07:16:15.503Z,9.21
2023-02-19T07:18:43.558Z,9.21
2023-02-19T07:21:13.304Z,9.13
2023-02-19T07:23:42.373Z,9.15
2023-02-19T07:26:14.222Z,9.20
2023-02-19T07:28:43.025Z,9.24
2023-02-19T07:31:11.887Z,9.22
2023-02-19T07:33:40.286Z,9.29
2023-02-19T07:36:08.669Z,9.32
2023-02-19T07:38:36.644Z,9.35
2023-02-19T07:41:05.998Z,9.27
2023-02-19T07:43:35.444Z,9.25
2023-02-19T07:46:13.444Z,9.26
2023-02-19T07:48:42.861Z,9.35
2023-02-19T07:51:12.942Z,9.40
2023-02-19T07:53:41.139Z,9.39
2023-02-19T07:56:10.775Z,9.31
2023-02-19T07:58:38.917Z,9.29
2023-02-19T08:01:17.605Z,9.36
2023-02-19T08:03:45.950Z,9.21
2023-02-19T08:06:14.003Z,9.06
2023-02-19T08:08:41.977Z,8.96
2023-02-19T08:11:28.766Z,8.88
2023-02-19T08:13:56.750Z,8.77
2023-02-19T08:16:40.871Z,8.70
2023-02-19T08:19:10.938Z,8.70
2023-02-19T08:21:39.011Z,8.66
2023-02-19T08:24:07.165Z,8.57
2023-02-19T08:26:35.440Z,8.58
2023-02-19T08:29:04.118Z,8.64
2023-02-19T08:31:32.972Z,8.75
2023-02-19T08:34:01.094Z,8.87
2023-02-19T08:36:29.158Z,8.90
2023-02-19T08:38:57.119Z,8.90
2023-02-19T08:41:25.088Z,8.94
2023-02-19T08:43:53.174Z,8.79
2023-02-19T08:46:22.846Z,8.67
2023-02-19T08:48:51.250Z,8.65
2023-02-19T08:51:19.343Z,8.74
2023-02-19T08:53:47.299Z,8.85
2023-02-19T08:56:16.387Z,8.92
2023-02-19T08:58:44.578Z,9.01
2023-02-19T09:01:14.559Z,9.30
2023-02-19T09:03:42.956Z,9.64
2023-02-19T09:06:15.948Z,9.99
2023-02-19T09:08:43.790Z,10.32
2023-02-19T09:11:12.334Z,10.52
2023-02-19T09:13:40.774Z,10.76
2023-02-19T09:16:08.875Z,10.74
2023-02-19T09:18:37.141Z,10.63
2023-02-19T09:21:06.028Z,10.85
2023-02-19T09:23:34.694Z,10.81
2023-02-19T09:26:06.905Z,11.07
2023-02-19T09:28:35.088Z,11.23
2023-02-19T09:31:06.501Z,11.21
2023-02-19T09:33:34.665Z,10.95
2023-02-19T09:36:03.474Z,10.75
2023-02-19T09:38:31.532Z,10.81
2023-02-19T09:41:00.218Z,10.75
2023-02-19T09:43:30.037Z,10.94
2023-02-19T09:46:09.338Z,10.72
2023-02-19T09:48:37.653Z,10.86
2023-02-19T09:51:08.122Z,10.97
2023-02-19T09:53:40.956Z,11.07
2023-02-19T09:56:08.974Z,11.18
2023-02-19T09:58:57.175Z,11.21
2023-02-19T10:01:27.235Z,11.26
2023-02-19T10:03:55.255Z,11.19
2023-02-19T10:06:24.758Z,11.33
2023-02-19T10:08:55.387Z,11.34
2023-02-19T10:11:26.026Z,11.29
2023-02-19T10:14:02.388Z,11.27
2023-02-19T10:16:30.390Z,11.34
2023-02-19T10:18:58.332Z,11.38
2023-02-19T10:21:27.942Z,11.36
2023-02-19T10:23:58.107Z,11.29
2023-02-19T10:29:54.648Z,11.44
2023-02-19T10:32:24.551Z,11.46
2023-02-19T10:35:18.942Z,11.36
2023-02-19T10:37:49.161Z,11.20
2023-02-19T10:40:20.932Z,11.06
2023-02-19T10:42:50.324Z,11.04
2023-02-19T10:45:44.511Z,11.01
2023-02-19T10:48:21.914Z,10.98
2023-02-19T10:50:56.118Z,11.06
2023-02-19T10:53:35.485Z,11.17
2023-02-19T10:56:11.976Z,11.20
2023-02-19T10:58:42.496Z,11.18
2023-02-19T11:01:29.511Z,11.18
2023-02-19T11:04:23.362Z,11.20
2023-02-19T11:06:51.716Z,11.18
2023-02-19T11:09:25.995Z,11.10
2023-02-19T11:11:55.318Z,11.09
2023-02-19T11:14:24.493Z,11.10
2023-02-19T11:16:52.609Z,11.06
2023-02-19T11:19:25.836Z,11.01
2023-02-19T11:21:54.126Z,10.90
2023-02-19T11:24:37.403Z,10.81
2023-02-19T11:27:07.213Z,10.79
2023-02-19T11:29:35.692Z,10.80
2023-02-19T11:32:32.953Z,10.82
2023-02-19T11:35:19.058Z,10.92
2023-02-19T11:37:54.119Z,10.96
2023-02-19T11:40:25.024Z,11.13
2023-02-19T11:43:00.226Z,11.26
2023-02-19T11:45:31.311Z,11.24
2023-02-19T11:48:30.268Z,11.12
2023-02-19T11:51:15.168Z,11.03
2023-02-19T11:53:49.647Z,10.99
2023-02-19T11:56:24.038Z,10.97
2023-02-19T11:58:51.864Z,10.99
2023-02-19T12:01:23.021Z,10.95
2023-02-19T12:04:09.731Z,10.90
2023-02-19T12:06:40.770Z,10.82
2023-02-19T12:09:18.732Z,10.78
2023-02-19T12:11:53.680Z,10.71
2023-02-19T12:14:21.680Z,10.65
2023-02-19T12:17:08.391Z,10.67
2023-02-19T12:19:55.101Z,10.67
2023-02-19T12:22:26.028Z,10.70
2023-02-19T12:25:12.498Z,10.72
2023-02-19T12:27:47.080Z,10.77
2023-02-19T12:30:31.951Z,10.81
2023-02-19T12:33:13.236Z,10.86
2023-02-19T12:35:48.010Z,10.90
2023-02-19T12:38:23.481Z,10.94
2023-02-19T12:40:57.115Z,10.96
2023-02-19T12:43:25.367Z,11.00
2023-02-19T12:46:01.998Z,11.06
2023-02-19T12:48:32.984Z,11.08
2023-02-19T12:51:05.859Z,11.12
2023-02-19T12:53:33.926Z,11.06
2023-02-19T12:56:05.593Z,11.05
2023-02-19T12:58:39.741Z,11.07
2023-02-19T13:01:10.180Z,11.09
2023-02-19T13:03:41.481Z,11.10
2023-02-19T13:06:15.898Z,11.12
2023-02-19T13:09:10.191Z,11.14
2023-02-19T13:11:47.277Z,11.21
2023-02-19T13:14:18.409Z,11.26
2023-02-19T13:16:50.845Z,11.29
2023-02-19T13:19:18.891Z,11.29
2023-02-19T13:22:09.872Z,11.31
2023-02-19T13:24:41.008Z,11.29
2023-02-19T13:27:09.704Z,11.26
2023-02-19T13:29:37.668Z,11.25
2023-02-19T13:32:05.708Z,11.23
2023-02-19T13:34:48.379Z,11.19
2023-02-19T13:37:16.861Z,11.15
2023-02-19T13:39:50.234Z,11.09
2023-02-19T13:42:29.063Z,11.06
2023-02-19T13:44:58.589Z,11.01
2023-02-19T13:47:45.481Z,10.97
2023-02-19T13:50:22.855Z,10.94
2023-02-19T13:53:00.884Z,10.88
2023-02-19T13:55:46.245Z,10.83
2023-02-19T13:58:33.061Z,10.82
2023-02-19T14:01:02.353Z,10.75
2023-02-19T14:03:39.763Z,10.70
2023-02-19T14:06:08.734Z,10.62
2023-02-19T14:09:02.831Z,10.52
2023-02-19T14:11:42.974Z,10.37
2023-02-19T14:14:23.408Z,10.25
2023-02-19T14:16:54.583Z,10.13
2023-02-19T14:19:41.086Z,10.06
2023-02-19T14:22:27.805Z,10.02
2023-02-19T14:24:56.164Z,9.99
2023-02-19T14:27:25.510Z,9.91
2023-02-19T14:29:53.586Z,9.91
2023-02-19T14:32:21.842Z,9.84
2023-02-19T14:34:49.898Z,9.74
2023-02-19T14:37:19.810Z,9.74
2023-02-19T14:39:48.189Z,9.64
2023-02-19T14:42:17.714Z,9.63
2023-02-19T14:44:48.532Z,9.58
2023-02-19T14:47:18.756Z,9.53
2023-02-19T14:49:47.027Z,9.50
2023-02-19T14:52:21.141Z,9.49
2023-02-19T14:54:52.071Z,9.47
2023-02-19T14:57:25.616Z,9.35
2023-02-19T14:59:55.409Z,9.27
2023-02-19T15:02:26.168Z,9.29
2023-02-19T15:04:54.868Z,9.23
2023-02-19T15:07:29.851Z,9.09
2023-02-19T15:10:04.988Z,9.09
2023-02-19T15:12:35.307Z,9.11
2023-02-19T15:15:04.906Z,9.13
2023-02-19T15:17:34.517Z,9.13
2023-02-19T15:20:09.448Z,9.12
2023-02-19T15:22:40.058Z,9.14
2023-02-19T15:25:08.569Z,9.05
2023-02-19T15:27:37.565Z,8.86
2023-02-19T15:30:16.624Z,8.84
2023-02-19T15:32:51.923Z,8.90
2023-02-19T15:35:21.483Z,8.94
2023-02-19T15:37:50.028Z,8.95
2023-02-19T15:40:19.942Z,8.78
2023-02-19T15:42:48.008Z,8.64
2023-02-19T15:45:15.878Z,8.58
2023-02-19T15:47:49.224Z,8.46
2023-02-19T15:50:28.714Z,8.55
2023-02-19T15:53:03.853Z,8.51
2023-02-19T15:55:34.902Z,8.44
2023-02-19T15:58:02.861Z,8.43
2023-02-19T16:00:48.759Z,8.48
2023-02-19T16:03:19.282Z,8.47
2023-02-19T16:05:57.800Z,8.53
2023-02-19T16:08:30.947Z,8.49
2023-02-19T16:11:00.498Z,8.41
2023-02-19T16:13:30.106Z,8.32
2023-02-19T16:16:04.045Z,8.17
2023-02-19T16:18:32.396Z,8.27
2023-02-19T16:21:01.493Z,8.28
2023-02-19T16:23:29.389Z,8.36
2023-02-19T16:26:02.242Z,8.37
2023-02-19T16:28:34.966Z,8.38
2023-02-19T16:31:04.772Z,8.40
2023-02-19T16:33:33.135Z,8.48
2023-02-19T16:36:20.398Z,8.56
2023-02-19T16:39:09.814Z,8.64
2023-02-19T16:41:57.747Z,8.71
2023-02-19T16:44:28.492Z,8.77
2023-02-19T16:47:13.893Z,8.82
2023-02-19T16:49:42.958Z,8.84
2023-02-19T16:52:15.735Z,8.87
2023-02-19T16:54:43.700Z,8.86
2023-02-19T16:57:11.770Z,8.79
2023-02-19T16:59:39.793Z,8.64
2023-02-19T17:02:10.474Z,8.38
2023-02-19T17:04:39.568Z,8.31
2023-02-19T17:07:09.074Z,8.21
2023-02-19T17:09:37.042Z,8.13
2023-02-19T17:12:05.944Z,8.15
2023-02-19T17:14:33.902Z,8.13
2023-02-19T17:17:02.493Z,8.09
2023-02-19T17:19:30.672Z,8.06
2023-02-19T17:21:58.980Z,7.99
2023-02-19T17:24:26.818Z,7.92
2023-02-19T17:26:54.779Z,7.77
2023-02-19T17:29:22.958Z,7.66
2023-02-19T17:31:51.674Z,7.57
2023-02-19T17:34:19.720Z,7.55
2023-02-19T17:36:48.390Z,7.50
2023-02-19T17:39:18.618Z,7.52
2023-02-19T17:41:46.695Z,7.60
2023-02-19T17:44:14.861Z,7.64
2023-02-19T17:46:42.826Z,7.71
2023-02-19T17:49:12.564Z,7.76
2023-02-19T17:51:40.551Z,7.79
2023-02-19T17:54:09.643Z,7.81
2023-02-19T17:56:40.152Z,7.83
2023-02-19T17:59:08.048Z,7.89
2023-02-19T18:01:36.119Z,7.89
2023-02-19T18:04:04.386Z,7.87
2023-02-19T18:06:32.426Z,7.79
2023-02-19T18:09:00.392Z,7.81
2023-02-19T18:11:28.461Z,7.79
2023-02-19T18:13:56.750Z,7.79
2023-02-19T18:16:24.741Z,7.80
2023-02-19T18:18:53.299Z,7.84
2023-02-19T18:21:23.645Z,7.75
2023-02-19T18:23:51.671Z,7.65
2023-02-19T18:26:20.920Z,7.59
2023-02-19T18:28:48.860Z,7.52
2023-02-19T18:31:16.796Z,7.48
2023-02-19T18:33:45.149Z,7.41
2023-02-19T18:36:13.390Z,7.29
2023-02-19T18:38:42.271Z,7.15
2023-02-19T18:41:14.094Z,7.19
2023-02-19T18:43:42.424Z,7.29
2023-02-19T18:46:10.928Z,7.30
2023-02-19T18:48:38.998Z,7.36
2023-02-19T18:51:10.910Z,7.38
2023-02-19T18:53:39.236Z,7.39
2023-02-19T18:56:09.114Z,7.42
2023-02-19T18:58:37.081Z,7.48
2023-02-19T19:01:05.192Z,7.52
2023-02-19T19:03:33.224Z,7.50
2023-02-19T19:06:01.249Z,7.47
2023-02-19T19:08:30.675Z,7.43
2023-02-19T19:10:58.786Z,7.35
2023-02-19T19:13:26.763Z,7.19
2023-02-19T19:15:54.954Z,7.10
2023-02-19T19:18:25.350Z,7.02
2023-02-19T19:20:56.817Z,6.92
2023-02-19T19:23:24.771Z,6.91
2023-02-19T19:25:54.682Z,6.83
2023-02-19T19:28:23.368Z,6.77
2023-02-19T19:30:51.589Z,6.70
2023-02-19T19:33:20.355Z,6.62
2023-02-19T19:35:48.541Z,6.56
2023-02-19T19:38:16.767Z,6.50
2023-02-19T19:40:46.597Z,6.42
2023-02-19T19:43:15.279Z,6.39
2023-02-19T19:45:43.257Z,6.36
2023-02-19T19:48:11.445Z,6.35
2023-02-19T19:50:39.498Z,6.32
2023-02-19T19:53:07.465Z,6.23
2023-02-19T19:55:35.343Z,6.25
2023-02-19T19:58:03.307Z,6.22
2023-02-19T20:00:31.292Z,6.22
2023-02-19T20:02:59.477Z,6.24
2023-02-19T20:05:27.459Z,6.25
2023-02-19T20:07:55.386Z,6.27
2023-02-19T20:10:23.451Z,6.26
2023-02-19T20:12:51.423Z,6.24
2023-02-19T20:15:20.840Z,6.08
2023-02-19T20:17:49.452Z,5.80
2023-02-19T20:20:21.569Z,5.76
2023-02-19T20:22:50.157Z,5.63
2023-02-19T20:25:19.152Z,5.64
2023-02-19T20:27:50.914Z,5.62
2023-02-19T20:30:20.343Z,5.63
2023-02-19T20:32:48.392Z,5.48
2023-02-19T20:35:17.276Z,5.43
2023-02-19T20:37:48.008Z,5.45
2023-02-19T20:40:17.627Z,5.44
2023-02-19T20:42:45.588Z,5.40
2023-02-19T20:45:16.851Z,5.42
2023-02-19T20:47:44.829Z,5.40
2023-02-19T20:50:12.984Z,5.44
2023-02-19T20:52:40.944Z,5.41
2023-02-19T20:55:09.536Z,5.44
2023-02-19T20:57:38.015Z,5.42
2023-02-19T21:00:06.929Z,5.36
2023-02-19T21:02:35.211Z,5.34
2023-02-19T21:05:03.468Z,5.34
2023-02-19T21:07:31.568Z,5.38
2023-02-19T21:09:59.620Z,5.32
2023-02-19T21:12:27.573Z,5.31
2023-02-19T21:14:55.536Z,5.37
2023-02-19T21:17:23.432Z,5.36
2023-02-19T21:19:51.376Z,5.31
2023-02-19T21:22:19.346Z,5.37
2023-02-19T21:24:52.067Z,5.38
2023-02-19T21:27:20.711Z,5.41
2023-02-19T21:29:48.684Z,5.38
2023-02-19T21:32:16.761Z,5.42
2023-02-19T21:34:44.983Z,5.48
2023-02-19T21:37:13.104Z,5.53
2023-02-19T21:39:42.919Z,5.51
2023-02-19T21:42:10.995Z,5.43
2023-02-19T21:44:38.979Z,5.34
2023-02-19T21:47:07.028Z,5.23
2023-02-19T21:49:35.105Z,5.15
2023-02-19T21:52:02.993Z,5.12
2023-02-19T21:54:30.916Z,5.05
2023-02-19T21:57:01.677Z,5.07
2023-02-19T21:59:29.737Z,5.09
2023-02-19T22:01:57.909Z,5.15
2023-02-19T22:04:25.796Z,5.17
2023-02-19T22:06:56.753Z,5.19
2023-02-19T22:09:24.934Z,5.18
2023-02-19T22:11:53.173Z,5.17
2023-02-19T22:14:21.039Z,5.18
2023-02-19T22:16:49.049Z,5.17
2023-02-19T22:19:17.184Z,5.16
2023-02-19T22:21:45.348Z,5.20
2023-02-19T22:24:17.665Z,5.21
2023-02-19T22:26:46.276Z,5.21
2023-02-19T22:29:15.304Z,5.22
2023-02-19T22:31:43.790Z,5.24
2023-02-19T22:34:12.264Z,5.27
2023-02-19T22:36:40.647Z,5.28
2023-02-19T22:39:14.844Z,5.35
2023-02-19T22:41:43.135Z,5.42
2023-02-19T22:44:11.354Z,5.48
2023-02-19T22:46:39.278Z,5.55
2023-02-19T22:49:07.865Z,5.61
2023-02-19T22:51:35.830Z,5.66
2023-02-19T22:54:03.843Z,5.70
2023-02-19T22:56:31.878Z,5.75
2023-02-19T22:59:00.057Z,5.77
2023-02-19T23:01:28.036Z,5.80
2023-02-19T23:03:57.707Z,5.83
2023-02-19T23:06:30.322Z,5.86
2023-02-19T23:08:58.993Z,5.87
2023-02-19T23:11:28.810Z,5.87
2023-02-19T23:13:57.189Z,5.88
2023-02-19T23:16:25.603Z,5.88
2023-02-19T23:18:53.644Z,5.86
2023-02-19T23:21:22.852Z,5.86
2023-02-19T23:23:51.018Z,5.85
2023-02-19T23:26:19.703Z,5.81
2023-02-19T23:28:47.774Z,5.81
2023-02-19T23:31:16.377Z,5.78
2023-02-19T23:33:45.359Z,5.70
2023-02-19T23:36:14.124Z,5.57
2023-02-19T23:38:46.511Z,5.49
2023-02-19T23:41:15.231Z,5.43
2023-02-19T23:43:43.363Z,5.40
2023-02-19T23:46:17.387Z,5.32
2023-02-19T23:48:46.493Z,5.29
2023-02-19T23:51:14.856Z,5.25
2023-02-19T23:53:42.722Z,5.14
2023-02-19T23:56:11.074Z,5.08
2023-02-19T23:58:39.573Z,5.01
